Time;durP1;ratioP1;P1;durP2;ratioP2;P2;SDS_P1;SDS_P2;PMS_P1;PMS_P2;Temp;Humidity;BMP_temperature;BMP_pressure;BME280_temperature;BME280_humidity;BME280_pressure;Samples;Min_cycle;Max_cycle;Signal;HPM_P1;HPM_P2
2023/05/23 00:02:16;;;;;;;;;;;23.20;55.20;;;;;;5085598;28;43041;-88
2023/05/23 00:04:43;;;;;;;;;;;23.30;54.40;;;;;;5085319;28;43115;-86
2023/05/23 00:07:08;;;;;;;;;;;23.20;54.40;;;;;;5085008;28;42871;-83
2023/05/23 00:09:34;;;;;;;;;;;23.30;53.80;;;;;;5086760;27;42978;-77
2023/05/23 00:11:59;;;;;;;;;;;23.40;54.10;;;;;;5085272;27;42952;-85
2023/05/23 00:14:25;;;;;;;;;;;23.20;54.80;;;;;;5085161;28;42890;-83
2023/05/23 00:16:51;;;;;;;;;;;23.20;54.50;;;;;;5066835;28;44410;-76
2023/05/23 00:19:16;;;;;;;;;;;23.30;54.90;;;;;;5085412;28;43132;-85
2023/05/23 00:21:42;;;;;;;;;;;23.40;54.10;;;;;;5086453;27;43556;-86
2023/05/23 00:24:09;;;;;;;;;;;23.30;54.50;;;;;;5085517;28;42863;-86
2023/05/23 00:26:35;;;;;;;;;;;23.30;53.70;;;;;;5085422;28;43002;-83
2023/05/23 00:29:00;;;;;;;;;;;23.30;54.20;;;;;;5083864;28;43068;-83
2023/05/23 00:31:26;;;;;;;;;;;23.30;54.20;;;;;;5083725;27;43001;-79
2023/05/23 00:33:51;;;;;;;;;;;24.10;54.90;;;;;;5085094;28;43031;-87
2023/05/23 00:36:17;;;;;;;;;;;23.30;53.80;;;;;;5085444;28;43092;-86
2023/05/23 00:38:44;;;;;;;;;;;23.20;54.10;;;;;;5085001;28;43120;-85
2023/05/23 00:41:10;;;;;;;;;;;23.30;54.20;;;;;;5084809;28;43458;-84
2023/05/23 00:43:36;;;;;;;;;;;23.30;54.20;;;;;;5066177;28;42803;-77
2023/05/23 00:46:01;;;;;;;;;;;23.50;54.40;;;;;;5084014;28;43008;-86
2023/05/23 00:48:27;;;;;;;;;;;23.10;54.30;;;;;;5084780;28;42899;-84
2023/05/23 00:50:53;;;;;;;;;;;23.20;53.90;;;;;;5097900;27;43588;-86
2023/05/23 00:53:19;;;;;;;;;;;23.20;53.80;;;;;;5105661;27;42985;-85
2023/05/23 00:55:44;;;;;;;;;;;23.20;54.30;;;;;;5105243;27;43025;-80
2023/05/23 00:58:10;;;;;;;;;;;23.30;54.60;;;;;;5103366;27;43127;-85
2023/05/23 01:00:37;;;;;;;;;;;23.40;54.40;;;;;;5103683;27;42925;-85
2023/05/23 01:03:03;;;;;;;;;;;23.40;54.60;;;;;;5104426;27;42960;-86
2023/05/23 01:05:29;;;;;;;;;;;23.40;55.10;;;;;;5105433;27;42934;-85
2023/05/23 01:07:55;;;;;;;;;;;23.10;54.40;;;;;;5086960;27;42785;-86
2023/05/23 01:10:22;;;;;;;;;;;23.30;54.10;;;;;;5104778;27;42885;-86
2023/05/23 01:12:57;;;;;;;;;;;23.30;54.70;;;;;;5105719;27;42817;-75
2023/05/23 01:15:26;;;;;;;;;;;23.20;52.90;;;;;;5103485;27;43341;-77
2023/05/23 01:17:52;;;;;;;;;;;23.20;55.20;;;;;;5104705;27;42808;-89
2023/05/23 01:20:21;;;;;;;;;;;23.10;54.70;;;;;;5105339;27;43370;-89
2023/05/23 01:22:47;;;;;;;;;;;23.10;52.60;;;;;;5103585;27;42902;-89
2023/05/23 01:25:31;;;;;;;;;;;23.20;54.50;;;;;;5091881;27;43389;-88
2023/05/23 01:28:02;;;;;;;;;;;23.20;53.30;;;;;;5084834;28;42867;-88
2023/05/23 01:30:29;;;;;;;;;;;23.80;52.90;;;;;;5066102;28;42991;-87
2023/05/23 01:32:55;;;;;;;;;;;23.10;54.60;;;;;;5086094;27;42883;-87
2023/05/23 01:35:23;;;;;;;;;;;23.20;54.60;;;;;;5065579;28;43728;-86
2023/05/23 01:37:48;;;;;;;;;;;23.20;54.60;;;;;;5084575;28;42937;-87
2023/05/23 01:40:14;;;;;;;;;;;23.30;54.40;;;;;;5084536;28;42920;-85
2023/05/23 01:42:40;;;;;;;;;;;23.30;54.10;;;;;;5089070;27;43071;-86
2023/05/23 01:45:05;;;;;;;;;;;23.10;54.90;;;;;;5087427;27;42938;-86
2023/05/23 01:47:31;;;;;;;;;;;23.10;54.50;;;;;;5087487;28;42968;-85
2023/05/23 01:49:58;;;;;;;;;;;23.40;54.70;;;;;;5087703;28;43515;-82
2023/05/23 01:52:24;;;;;;;;;;;23.10;54.90;;;;;;5087682;27;43033;-84
2023/05/23 01:54:50;;;;;;;;;;;23.10;54.00;;;;;;5069308;28;43683;-87
2023/05/23 01:57:16;;;;;;;;;;;23.10;54.50;;;;;;5087652;28;42834;-86
2023/05/23 01:59:42;;;;;;;;;;;22.80;54.50;;;;;;5087755;28;43492;-87
2023/05/23 02:02:07;;;;;;;;;;;23.00;54.70;;;;;;5068976;28;42889;-86
2023/05/23 02:04:33;;;;;;;;;;;22.80;55.00;;;;;;5102326;27;42962;-83
2023/05/23 02:06:59;;;;;;;;;;;23.00;55.40;;;;;;5089743;27;42989;-87
2023/05/23 02:09:24;;;;;;;;;;;23.00;54.50;;;;;;5108011;27;43094;-87
2023/05/23 02:11:50;;;;;;;;;;;23.10;54.60;;;;;;5107185;27;43155;-86
2023/05/23 02:14:17;;;;;;;;;;;23.00;55.00;;;;;;5102603;27;43016;-86
2023/05/23 02:16:43;;;;;;;;;;;22.90;55.00;;;;;;5108228;27;43013;-86
2023/05/23 02:19:09;;;;;;;;;;;22.90;54.90;;;;;;5107511;27;42870;-79
2023/05/23 02:21:34;;;;;;;;;;;22.90;54.60;;;;;;5107842;27;42981;-86
2023/05/23 02:24:00;;;;;;;;;;;23.00;54.50;;;;;;5105801;27;42937;-87
2023/05/23 02:26:26;;;;;;;;;;;23.10;54.30;;;;;;5106838;27;42986;-88
2023/05/23 02:28:52;;;;;;;;;;;22.80;55.00;;;;;;5104734;27;42933;-86
2023/05/23 02:31:17;;;;;;;;;;;23.00;55.10;;;;;;5093713;27;42960;-75
2023/05/23 02:33:43;;;;;;;;;;;22.70;55.10;;;;;;5091943;27;43572;-75
2023/05/23 02:36:08;;;;;;;;;;;22.90;54.70;;;;;;5087714;27;42940;-86
2023/05/23 02:38:34;;;;;;;;;;;22.70;54.30;;;;;;5087896;27;43730;-84
2023/05/23 02:41:00;;;;;;;;;;;23.00;55.00;;;;;;5086661;27;43590;-85
2023/05/23 02:43:25;;;;;;;;;;;23.00;54.60;;;;;;5091013;27;43020;-86
2023/05/23 02:45:51;;;;;;;;;;;23.00;54.90;;;;;;5106595;27;43064;-86
2023/05/23 02:48:16;;;;;;;;;;;22.80;54.10;;;;;;5087048;28;43878;-84
2023/05/23 02:50:42;;;;;;;;;;;22.80;54.40;;;;;;5088215;27;42928;-88
2023/05/23 02:53:07;;;;;;;;;;;22.90;54.20;;;;;;5086556;27;43445;-86
2023/05/23 02:55:33;;;;;;;;;;;23.10;54.30;;;;;;5088563;27;43003;-87
2023/05/23 02:57:58;;;;;;;;;;;22.90;54.30;;;;;;5086939;27;43509;-87
2023/05/23 03:00:24;;;;;;;;;;;22.80;54.60;;;;;;5093075;27;43056;-87
2023/05/23 03:02:50;;;;;;;;;;;22.90;54.40;;;;;;5086650;28;42981;-88
2023/05/23 03:05:15;;;;;;;;;;;22.90;54.10;;;;;;5101312;27;43355;-85
2023/05/23 03:07:41;;;;;;;;;;;22.90;54.40;;;;;;5090688;27;43262;-86
2023/05/23 03:10:07;;;;;;;;;;;22.80;54.20;;;;;;5090093;28;42852;-84
2023/05/23 03:12:32;;;;;;;;;;;22.70;53.50;;;;;;5091508;27;42873;-87
2023/05/23 03:14:58;;;;;;;;;;;22.80;53.10;;;;;;5091332;27;43124;-82
2023/05/23 03:17:24;;;;;;;;;;;22.80;52.70;;;;;;5106267;27;43053;-87
2023/05/23 03:19:50;;;;;;;;;;;22.80;52.50;;;;;;5106598;27;43080;-87
2023/05/23 03:22:15;;;;;;;;;;;22.60;51.80;;;;;;5088573;27;42844;-88
2023/05/23 03:24:41;;;;;;;;;;;22.80;52.90;;;;;;5106640;27;43047;-87
2023/05/23 03:27:06;;;;;;;;;;;22.80;52.40;;;;;;5104079;27;42917;-87
2023/05/23 03:29:32;;;;;;;;;;;23.00;52.90;;;;;;5106319;27;42976;-88
2023/05/23 03:31:57;;;;;;;;;;;22.70;51.70;;;;;;5103192;27;42935;-78
2023/05/23 03:34:25;;;;;;;;;;;22.80;52.30;;;;;;5099526;27;42936;-88
2023/05/23 03:36:51;;;;;;;;;;;22.90;52.10;;;;;;5085499;27;42885;-76
2023/05/23 03:39:16;;;;;;;;;;;22.80;51.90;;;;;;5086152;27;42941;-89
2023/05/23 03:41:42;;;;;;;;;;;22.80;52.00;;;;;;5086399;28;43326;-88
2023/05/23 03:44:07;;;;;;;;;;;22.70;51.80;;;;;;5087776;27;42921;-88
2023/05/23 03:46:33;;;;;;;;;;;22.80;52.30;;;;;;5084557;27;43665;-88
2023/05/23 03:48:58;;;;;;;;;;;22.70;51.80;;;;;;5089754;27;43215;-88
2023/05/23 03:51:24;;;;;;;;;;;22.60;51.90;;;;;;5106122;27;42922;-80
2023/05/23 03:53:49;;;;;;;;;;;22.60;52.00;;;;;;5106412;27;42922;-77
2023/05/23 03:56:15;;;;;;;;;;;22.60;51.90;;;;;;5106623;27;43272;-87
2023/05/23 03:58:40;;;;;;;;;;;22.70;51.90;;;;;;5106896;27;42956;-77
2023/05/23 04:01:06;;;;;;;;;;;22.60;52.00;;;;;;5103988;27;43261;-86
2023/05/23 04:03:32;;;;;;;;;;;22.70;51.70;;;;;;5106360;27;42912;-76
2023/05/23 04:05:58;;;;;;;;;;;22.60;51.70;;;;;;5105744;27;43035;-74
2023/05/23 04:08:24;;;;;;;;;;;22.60;51.50;;;;;;5105675;27;43407;-83
2023/05/23 04:10:49;;;;;;;;;;;22.60;51.70;;;;;;5102578;27;43344;-76
2023/05/23 04:13:15;;;;;;;;;;;22.60;51.00;;;;;;5101571;27;42870;-77
2023/05/23 04:15:41;;;;;;;;;;;22.70;51.60;;;;;;5098607;27;42851;-85
2023/05/23 04:18:08;;;;;;;;;;;22.70;51.70;;;;;;5095982;27;42960;-79
2023/05/23 04:20:33;;;;;;;;;;;22.70;51.50;;;;;;5093904;27;43555;-88
2023/05/23 04:22:59;;;;;;;;;;;22.00;51.50;;;;;;5106228;27;42878;-77
2023/05/23 04:25:25;;;;;;;;;;;22.70;51.70;;;;;;5105846;27;43488;-77
2023/05/23 04:27:51;;;;;;;;;;;22.60;51.90;;;;;;5104074;27;43052;-76
2023/05/23 04:30:17;;;;;;;;;;;22.60;51.80;;;;;;5097319;27;43623;-78
2023/05/23 04:32:42;;;;;;;;;;;22.60;52.00;;;;;;5090535;27;42898;-82
2023/05/23 04:35:08;;;;;;;;;;;22.60;52.10;;;;;;5094351;27;44828;-81
2023/05/23 04:37:34;;;;;;;;;;;22.40;52.00;;;;;;5092928;27;43077;-85
2023/05/23 04:40:00;;;;;;;;;;;22.60;52.20;;;;;;5073934;27;43453;-84
2023/05/23 04:42:26;;;;;;;;;;;22.50;52.20;;;;;;5092524;27;42996;-80
2023/05/23 04:44:51;;;;;;;;;;;22.60;52.20;;;;;;5093854;27;43087;-89
2023/05/23 04:47:17;;;;;;;;;;;22.60;52.20;;;;;;5097106;27;43684;-85
2023/05/23 04:49:43;;;;;;;;;;;22.50;52.20;;;;;;5091594;27;43250;-76
2023/05/23 04:52:09;;;;;;;;;;;22.60;52.10;;;;;;5101928;27;43104;-82
2023/05/23 04:54:36;;;;;;;;;;;22.80;52.50;;;;;;5098752;27;43362;-74
2023/05/23 04:57:02;;;;;;;;;;;22.60;51.80;;;;;;5098719;27;43090;-85
2023/05/23 04:59:27;;;;;;;;;;;22.60;52.70;;;;;;5096321;27;42957;-84
2023/05/23 05:01:53;;;;;;;;;;;22.50;52.80;;;;;;5101457;27;43066;-84
2023/05/23 05:04:18;;;;;;;;;;;22.50;52.90;;;;;;5086744;27;43125;-84
2023/05/23 05:06:44;;;;;;;;;;;22.50;53.10;;;;;;5092781;27;42962;-85
2023/05/23 05:09:09;;;;;;;;;;;22.50;53.10;;;;;;5096310;27;43337;-77
2023/05/23 05:11:35;;;;;;;;;;;22.70;53.10;;;;;;5086306;27;42885;-78
2023/05/23 05:14:00;;;;;;;;;;;22.50;53.00;;;;;;5088277;27;42892;-87
2023/05/23 05:16:26;;;;;;;;;;;22.50;53.00;;;;;;5087186;27;42863;-84
2023/05/23 05:18:51;;;;;;;;;;;22.50;52.90;;;;;;5099812;27;43037;-88
2023/05/23 05:21:17;;;;;;;;;;;22.50;53.10;;;;;;5100299;27;43076;-84
2023/05/23 05:23:42;;;;;;;;;;;22.50;52.50;;;;;;5100656;27;43484;-78
2023/05/23 05:26:08;;;;;;;;;;;22.50;53.10;;;;;;5087565;28;42962;-86
2023/05/23 05:28:34;;;;;;;;;;;22.40;52.20;;;;;;5074070;28;44836;-85
2023/05/23 05:31:03;;;;;;;;;;;22.60;52.40;;;;;;5088979;27;43075;-86
2023/05/23 05:33:34;;;;;;;;;;;22.60;53.20;;;;;;5088838;28;44423;-82
2023/05/23 05:36:01;;;;;;;;;;;22.60;53.10;;;;;;5087798;28;42954;-87
2023/05/23 05:38:26;;;;;;;;;;;22.60;52.50;;;;;;5073434;27;44642;-84
2023/05/23 05:40:52;;;;;;;;;;;22.60;53.10;;;;;;5108335;27;42946;-87
2023/05/23 05:43:17;;;;;;;;;;;22.70;53.30;;;;;;5108292;27;43928;-86
2023/05/23 05:45:43;;;;;;;;;;;22.60;53.30;;;;;;5108959;27;42922;-89
2023/05/23 05:48:08;;;;;;;;;;;22.70;53.20;;;;;;5108059;27;43028;-93
2023/05/23 05:50:34;;;;;;;;;;;22.70;53.20;;;;;;5106630;27;42959;-92
2023/05/23 05:52:59;;;;;;;;;;;22.70;53.30;;;;;;5107322;27;42913;-90
2023/05/23 05:55:25;;;;;;;;;;;22.70;53.30;;;;;;5108732;27;43215;-91
2023/05/23 05:57:50;;;;;;;;;;;22.70;53.20;;;;;;5107645;27;44407;-87
2023/05/23 06:00:17;;;;;;;;;;;22.70;52.70;;;;;;5106369;27;43148;-86
2023/05/23 06:02:43;;;;;;;;;;;22.70;53.30;;;;;;5099122;27;42881;-87
2023/05/23 06:05:11;;;;;;;;;;;22.70;53.20;;;;;;5096655;27;42958;-90
2023/05/23 06:07:39;;;;;;;;;;;22.70;53.20;;;;;;5083204;27;43106;-87
2023/05/23 06:10:05;;;;;;;;;;;22.70;53.40;;;;;;5106836;27;42902;-92
2023/05/23 06:12:31;;;;;;;;;;;22.80;53.30;;;;;;5089045;27;43822;-85
2023/05/23 06:14:57;;;;;;;;;;;22.80;53.20;;;;;;5109066;27;42822;-86
2023/05/23 06:17:22;;;;;;;;;;;22.80;53.80;;;;;;5108578;27;42975;-81
2023/05/23 06:19:48;;;;;;;;;;;22.80;53.10;;;;;;5109855;27;43105;-93
2023/05/23 06:22:13;;;;;;;;;;;22.80;54.10;;;;;;5105302;27;43008;-92
2023/05/23 06:24:39;;;;;;;;;;;22.80;52.90;;;;;;5096678;27;42998;-93
2023/05/23 06:27:04;;;;;;;;;;;22.80;53.50;;;;;;5088134;27;43017;-92
2023/05/23 06:29:30;;;;;;;;;;;22.80;53.50;;;;;;5094234;27;43082;-93
2023/05/23 06:31:56;;;;;;;;;;;22.90;53.40;;;;;;5108821;27;42909;-92
2023/05/23 06:34:21;;;;;;;;;;;22.90;53.40;;;;;;5089698;27;42965;-93
2023/05/23 06:36:47;;;;;;;;;;;22.90;53.50;;;;;;5108232;27;42699;-91
2023/05/23 06:39:13;;;;;;;;;;;22.90;53.50;;;;;;5108525;27;42927;-94
2023/05/23 06:41:38;;;;;;;;;;;22.90;53.40;;;;;;5106425;27;42725;-90
2023/05/23 06:44:04;;;;;;;;;;;22.90;53.50;;;;;;5098087;27;42735;-92
2023/05/23 06:46:29;;;;;;;;;;;22.90;53.60;;;;;;5087233;28;43717;-93
2023/05/23 06:48:55;;;;;;;;;;;22.90;53.60;;;;;;5070848;28;42883;-93
2023/05/23 06:51:20;;;;;;;;;;;22.90;53.80;;;;;;5086571;28;42762;-90
2023/05/23 06:53:46;;;;;;;;;;;22.90;53.80;;;;;;5087767;28;43073;-94
2023/05/23 06:56:11;;;;;;;;;;;22.90;53.60;;;;;;5087029;28;43831;-93
2023/05/23 06:58:37;;;;;;;;;;;22.70;53.50;;;;;;5087363;27;43067;-93
2023/05/23 07:01:03;;;;;;;;;;;22.70;53.40;;;;;;5094832;27;42769;-92
2023/05/23 07:03:28;;;;;;;;;;;22.90;53.60;;;;;;5107838;27;42850;-93
2023/05/23 07:05:54;;;;;;;;;;;22.80;53.60;;;;;;5107240;27;42865;-94
2023/05/23 07:08:20;;;;;;;;;;;22.90;53.70;;;;;;5107887;27;42865;-92
2023/05/23 07:10:45;;;;;;;;;;;22.90;53.80;;;;;;5088944;27;43464;-91
2023/05/23 07:13:11;;;;;;;;;;;23.00;53.60;;;;;;5087538;27;42959;-93
2023/05/23 07:15:36;;;;;;;;;;;22.90;53.50;;;;;;5087256;28;42858;-95
2023/05/23 07:18:02;;;;;;;;;;;22.90;53.30;;;;;;5087446;28;42877;-94
2023/05/23 07:20:28;;;;;;;;;;;22.90;53.30;;;;;;5086268;27;42805;-92
2023/05/23 07:22:54;;;;;;;;;;;22.90;53.30;;;;;;5089338;27;42907;-77
2023/05/23 07:25:21;;;;;;;;;;;22.90;53.20;;;;;;5091819;27;43389;-92
2023/05/23 07:27:46;;;;;;;;;;;22.90;53.20;;;;;;5106613;27;42741;-90
2023/05/23 07:30:12;;;;;;;;;;;22.90;53.30;;;;;;5090384;27;43579;-90
2023/05/23 07:32:37;;;;;;;;;;;22.90;53.40;;;;;;5093679;27;42889;-89
2023/05/23 07:35:04;;;;;;;;;;;22.90;53.30;;;;;;5101538;27;42974;-88
2023/05/23 07:37:29;;;;;;;;;;;22.90;53.40;;;;;;5092834;27;42842;-89
2023/05/23 07:39:55;;;;;;;;;;;23.00;53.20;;;;;;5090847;27;42951;-89
2023/05/23 07:42:20;;;;;;;;;;;23.00;53.20;;;;;;5092712;27;42969;-87
2023/05/23 07:44:46;;;;;;;;;;;23.00;53.20;;;;;;5092830;27;42930;-89
2023/05/23 07:47:11;;;;;;;;;;;23.00;53.00;;;;;;5098632;27;43001;-80
2023/05/23 07:49:37;;;;;;;;;;;23.00;52.90;;;;;;5095703;27;43103;-79
2023/05/23 07:52:02;;;;;;;;;;;23.00;53.20;;;;;;5095439;27;43624;-89
2023/05/23 07:54:28;;;;;;;;;;;23.00;53.00;;;;;;5090286;27;43449;-87
2023/05/23 07:56:53;;;;;;;;;;;23.00;52.90;;;;;;5091485;27;43202;-86
2023/05/23 07:59:19;;;;;;;;;;;23.00;52.90;;;;;;5091949;27;43120;-83
2023/05/23 08:01:45;;;;;;;;;;;23.00;52.80;;;;;;5092374;27;43040;-88
2023/05/23 08:04:10;;;;;;;;;;;23.10;53.10;;;;;;5088708;27;44479;-83
2023/05/23 08:06:36;;;;;;;;;;;23.00;52.60;;;;;;5092900;27;42965;-83
2023/05/23 08:09:02;;;;;;;;;;;23.10;52.70;;;;;;5085815;27;43576;-85
2023/05/23 08:11:29;;;;;;;;;;;23.20;52.70;;;;;;5085902;28;42974;-88
2023/05/23 08:13:54;;;;;;;;;;;23.00;52.60;;;;;;5095751;27;43631;-87
2023/05/23 08:16:20;;;;;;;;;;;23.00;52.80;;;;;;5099834;27;42889;-75
2023/05/23 08:18:46;;;;;;;;;;;23.00;53.30;;;;;;5090036;27;42966;-87
2023/05/23 08:21:11;;;;;;;;;;;23.10;52.70;;;;;;5099345;27;43181;-88
2023/05/23 08:23:36;;;;;;;;;;;23.10;52.60;;;;;;5095672;27;43899;-83
2023/05/23 08:26:02;;;;;;;;;;;23.10;52.70;;;;;;5101308;27;42993;-83
2023/05/23 08:28:27;;;;;;;;;;;23.10;52.90;;;;;;5092268;27;42993;-89
2023/05/23 08:30:53;;;;;;;;;;;23.10;52.20;;;;;;5085154;28;43006;-86
2023/05/23 08:33:18;;;;;;;;;;;23.10;53.40;;;;;;5084576;27;43537;-88
2023/05/23 08:35:45;;;;;;;;;;;23.10;52.40;;;;;;5084392;27;42930;-86
2023/05/23 08:38:10;;;;;;;;;;;23.10;53.00;;;;;;5085499;27;42734;-87
2023/05/23 08:40:38;;;;;;;;;;;23.10;53.00;;;;;;5093888;27;43938;-81
2023/05/23 08:43:03;;;;;;;;;;;23.10;53.00;;;;;;5091325;27;43496;-89
2023/05/23 08:45:29;;;;;;;;;;;23.20;53.30;;;;;;5101933;27;42895;-89
2023/05/23 08:47:59;;;;;;;;;;;23.20;53.10;;;;;;5088232;27;43975;-77
2023/05/23 08:50:26;;;;;;;;;;;23.10;52.60;;;;;;5087714;27;42831;-89
2023/05/23 08:52:55;;;;;;;;;;;23.30;53.30;;;;;;5088743;27;43747;-89
2023/05/23 08:55:27;;;;;;;;;;;23.20;53.00;;;;;;5089172;27;42970;-89
2023/05/23 08:57:53;;;;;;;;;;;23.20;53.00;;;;;;5098414;27;42980;-89
2023/05/23 09:00:19;;;;;;;;;;;23.20;53.40;;;;;;5089543;27;42950;-87
2023/05/23 09:02:45;;;;;;;;;;;23.20;53.50;;;;;;5088221;27;44141;-88
2023/05/23 09:05:14;;;;;;;;;;;23.20;53.50;;;;;;5076099;28;42903;-88
2023/05/23 09:07:40;;;;;;;;;;;23.20;53.50;;;;;;5092368;27;43112;-87
2023/05/23 09:10:07;;;;;;;;;;;23.20;53.80;;;;;;5093104;27;43176;-86
2023/05/23 09:12:35;;;;;;;;;;;23.40;53.90;;;;;;5092934;27;42980;-87
2023/05/23 09:15:00;;;;;;;;;;;23.30;54.00;;;;;;5092065;27;43036;-89
2023/05/23 09:17:26;;;;;;;;;;;23.30;54.30;;;;;;5088740;27;43016;-80
2023/05/23 09:19:51;;;;;;;;;;;23.30;54.20;;;;;;5091639;27;43000;-89
2023/05/23 09:22:22;;;;;;;;;;;23.30;54.50;;;;;;5087952;27;43067;-89
2023/05/23 09:24:49;;;;;;;;;;;23.30;54.30;;;;;;5084930;27;43001;-89
2023/05/23 09:27:15;;;;;;;;;;;23.30;54.40;;;;;;5088788;27;43516;-89
2023/05/23 09:29:40;;;;;;;;;;;23.30;54.70;;;;;;5082938;27;43025;-88
2023/05/23 09:32:19;;;;;;;;;;;23.30;54.50;;;;;;5097208;27;42992;-86
2023/05/23 09:34:55;;;;;;;;;;;23.30;54.30;;;;;;5102186;27;43077;-84
2023/05/23 09:37:23;;;;;;;;;;;23.30;54.30;;;;;;5103415;27;43036;-85
2023/05/23 09:39:49;;;;;;;;;;;23.30;54.80;;;;;;5082127;27;42861;-88
2023/05/23 09:42:19;;;;;;;;;;;23.40;54.80;;;;;;5090852;27;43177;-80
2023/05/23 09:44:45;;;;;;;;;;;23.30;54.50;;;;;;5089861;27;43007;-81
2023/05/23 09:47:11;;;;;;;;;;;22.60;54.70;;;;;;5088390;27;43864;-79
2023/05/23 09:49:40;;;;;;;;;;;23.30;54.90;;;;;;5088618;27;43031;-83
2023/05/23 09:52:06;;;;;;;;;;;23.30;54.90;;;;;;5092632;27;43858;-86
2023/05/23 09:54:31;;;;;;;;;;;23.30;54.90;;;;;;5097895;27;43064;-94
2023/05/23 09:56:59;;;;;;;;;;;23.40;55.10;;;;;;5088200;27;43267;-80
2023/05/23 09:59:27;;;;;;;;;;;23.40;55.20;;;;;;5088137;27;42921;-91
2023/05/23 10:01:55;;;;;;;;;;;23.40;55.00;;;;;;5092955;27;42991;-88
2023/05/23 10:04:22;;;;;;;;;;;23.40;55.10;;;;;;5097528;27;43151;-92
2023/05/23 10:06:51;;;;;;;;;;;23.40;55.10;;;;;;5095403;27;44398;-73
2023/05/23 10:09:19;;;;;;;;;;;23.40;55.10;;;;;;5093033;27;42913;-85
2023/05/23 10:11:47;;;;;;;;;;;23.40;55.10;;;;;;5092257;27;43714;-78
2023/05/23 10:14:13;;;;;;;;;;;23.40;54.90;;;;;;5095110;27;43060;-88
2023/05/23 10:16:53;;;;;;;;;;;23.40;55.30;;;;;;5093272;27;42953;-90
2023/05/23 10:19:22;;;;;;;;;;;23.40;54.70;;;;;;5096127;27;42861;-88
2023/05/23 10:21:55;;;;;;;;;;;23.40;54.90;;;;;;5092132;27;42966;-83
2023/05/23 10:24:21;;;;;;;;;;;23.40;55.30;;;;;;5097406;27;43000;-82
2023/05/23 10:26:46;;;;;;;;;;;23.50;55.20;;;;;;5095782;27;43618;-89
2023/05/23 10:29:12;;;;;;;;;;;23.50;55.10;;;;;;5094523;27;42946;-81
2023/05/23 10:31:38;;;;;;;;;;;23.50;55.30;;;;;;5077696;27;42996;-89
2023/05/23 10:34:23;;;;;;;;;;;23.40;54.90;;;;;;5094819;27;43110;-74
2023/05/23 10:36:56;;;;;;;;;;;23.40;54.90;;;;;;5090711;27;42988;-83
2023/05/23 10:39:30;;;;;;;;;;;23.30;54.60;;;;;;5094154;27;43117;-89
2023/05/23 10:41:59;;;;;;;;;;;23.40;54.60;;;;;;5103108;27;43060;-85
2023/05/23 10:44:29;;;;;;;;;;;23.50;54.90;;;;;;5094616;27;42785;-90
2023/05/23 10:46:57;;;;;;;;;;;23.50;54.80;;;;;;5099144;27;43048;-84
2023/05/23 10:49:55;;;;;;;;;;;23.00;55.00;;;;;;5095071;27;42944;-81
2023/05/23 10:52:22;;;;;;;;;;;23.40;54.70;;;;;;5080406;27;42997;-79
2023/05/23 10:54:52;;;;;;;;;;;23.40;54.50;;;;;;5100528;27;42930;-83
2023/05/23 10:57:18;;;;;;;;;;;23.40;53.60;;;;;;5096319;27;43712;-79
2023/05/23 10:59:48;;;;;;;;;;;23.40;53.60;;;;;;5104412;27;42942;-79
2023/05/23 11:02:15;;;;;;;;;;;23.40;53.10;;;;;;5086653;27;43441;-83
2023/05/23 11:04:41;;;;;;;;;;;23.50;53.50;;;;;;5086159;28;42933;-80
2023/05/23 11:07:26;;;;;;;;;;;23.60;52.90;;;;;;5087557;27;43549;-83
2023/05/23 11:10:07;;;;;;;;;;;23.50;52.60;;;;;;5089001;27;43108;-81
2023/05/23 11:12:40;;;;;;;;;;;23.60;52.40;;;;;;5094000;27;43039;-77
2023/05/23 11:15:19;;;;;;;;;;;23.60;52.50;;;;;;5099392;27;42901;-78
2023/05/23 11:17:55;;;;;;;;;;;23.60;52.60;;;;;;5090330;27;44665;-78
2023/05/23 11:20:25;;;;;;;;;;;23.60;52.70;;;;;;5092691;27;42990;-78
2023/05/23 11:22:58;;;;;;;;;;;23.60;53.00;;;;;;5096961;27;43370;-76
2023/05/23 11:25:43;;;;;;;;;;;23.60;53.00;;;;;;5096938;27;43059;-77
2023/05/23 11:28:09;;;;;;;;;;;23.60;53.10;;;;;;5101433;27;43509;-77
2023/05/23 11:30:36;;;;;;;;;;;23.60;53.50;;;;;;5099994;27;59580;-78
2023/05/23 11:33:07;;;;;;;;;;;23.60;53.60;;;;;;5094744;27;43824;-78
2023/05/23 11:35:33;;;;;;;;;;;23.60;53.50;;;;;;5088529;27;43245;-78
2023/05/23 11:37:59;;;;;;;;;;;23.60;53.80;;;;;;5091538;27;43005;-76
2023/05/23 11:40:32;;;;;;;;;;;23.60;54.00;;;;;;5096065;27;42973;-77
2023/05/23 11:42:58;;;;;;;;;;;23.60;53.60;;;;;;5093971;27;43035;-78
2023/05/23 11:45:24;;;;;;;;;;;23.60;54.00;;;;;;5094461;27;43045;-78
2023/05/23 11:47:49;;;;;;;;;;;23.60;54.00;;;;;;5092393;27;43155;-74
2023/05/23 11:50:15;;;;;;;;;;;23.60;54.10;;;;;;5096043;27;42902;-75
2023/05/23 11:52:41;;;;;;;;;;;23.60;54.20;;;;;;5079495;27;43794;-80
2023/05/23 11:55:07;;;;;;;;;;;23.60;54.30;;;;;;5077365;27;43116;-76
2023/05/23 11:57:36;;;;;;;;;;;23.60;54.20;;;;;;5096223;27;43639;-75
2023/05/23 12:00:04;;;;;;;;;;;24.20;54.60;;;;;;5096737;27;42891;-75
2023/05/23 12:02:29;;;;;;;;;;;23.60;54.40;;;;;;5093579;27;43483;-79
2023/05/23 12:04:55;;;;;;;;;;;23.50;54.50;;;;;;5095780;27;43387;-78
2023/05/23 12:07:20;;;;;;;;;;;23.60;55.10;;;;;;5090305;27;43285;-78
2023/05/23 12:09:46;;;;;;;;;;;23.60;54.60;;;;;;5096344;27;43076;-78
2023/05/23 12:12:12;;;;;;;;;;;23.70;54.80;;;;;;5091669;27;43510;-76
2023/05/23 12:14:43;;;;;;;;;;;23.60;54.80;;;;;;5083413;27;43291;-80
2023/05/23 12:17:10;;;;;;;;;;;23.60;53.80;;;;;;5092884;27;43430;-84
2023/05/23 12:19:35;;;;;;;;;;;23.30;53.00;;;;;;5094748;27;43059;-86
2023/05/23 12:22:05;;;;;;;;;;;22.90;52.50;;;;;;5098430;27;42931;-80
2023/05/23 12:24:31;;;;;;;;;;;23.50;52.50;;;;;;5097923;27;43148;-81
2023/05/23 12:26:58;;;;;;;;;;;23.60;52.20;;;;;;5085863;27;43556;-81
2023/05/23 12:29:34;;;;;;;;;;;23.40;52.00;;;;;;5097628;27;42974;-80
2023/05/23 12:32:00;;;;;;;;;;;23.50;51.70;;;;;;5089441;27;43084;-79
2023/05/23 12:34:26;;;;;;;;;;;23.50;51.40;;;;;;5087170;27;42965;-80
2023/05/23 12:36:55;;;;;;;;;;;23.60;52.00;;;;;;5086402;27;42900;-82
2023/05/23 12:39:27;;;;;;;;;;;23.60;51.10;;;;;;5094231;27;43412;-78
2023/05/23 12:41:55;;;;;;;;;;;23.70;50.90;;;;;;5095060;27;43509;-82
2023/05/23 12:44:20;;;;;;;;;;;23.70;51.00;;;;;;5093600;27;42940;-82
2023/05/23 12:46:46;;;;;;;;;;;23.70;51.00;;;;;;5076717;27;42958;-87
2023/05/23 12:49:12;;;;;;;;;;;23.70;50.90;;;;;;5103264;27;43113;-82
2023/05/23 12:51:38;;;;;;;;;;;23.70;50.50;;;;;;5101223;27;43000;-79
2023/05/23 12:54:04;;;;;;;;;;;23.80;51.20;;;;;;5091139;27;42978;-75
2023/05/23 12:56:30;;;;;;;;;;;23.70;50.30;;;;;;5071370;28;43801;-79
2023/05/23 12:58:56;;;;;;;;;;;23.80;51.40;;;;;;5084666;27;42853;-86
2023/05/23 13:01:21;;;;;;;;;;;23.90;50.80;;;;;;5085939;27;43519;-84
2023/05/23 13:03:50;;;;;;;;;;;23.90;51.20;;;;;;5090701;27;44227;-80
2023/05/23 13:06:16;;;;;;;;;;;23.90;50.30;;;;;;5092965;27;43940;-83
2023/05/23 13:08:41;;;;;;;;;;;23.90;51.20;;;;;;5092779;27;43047;-85
2023/05/23 13:11:07;;;;;;;;;;;23.90;51.50;;;;;;5089465;27;43313;-83
2023/05/23 13:13:33;;;;;;;;;;;23.90;51.10;;;;;;5092416;27;43016;-92
2023/05/23 13:15:58;;;;;;;;;;;23.90;51.50;;;;;;5087198;27;43111;-75
2023/05/23 13:18:24;;;;;;;;;;;23.80;51.60;;;;;;5094367;27;42899;-87
2023/05/23 13:20:49;;;;;;;;;;;23.80;51.60;;;;;;5093932;27;43359;-87
2023/05/23 13:23:15;;;;;;;;;;;23.80;51.70;;;;;;5095050;27;43063;-82
2023/05/23 13:25:40;;;;;;;;;;;23.80;51.70;;;;;;5091633;27;43055;-81
2023/05/23 13:28:06;;;;;;;;;;;23.90;51.70;;;;;;5093600;27;43033;-80
2023/05/23 13:30:31;;;;;;;;;;;23.90;51.60;;;;;;5092507;27;42876;-78
2023/05/23 13:32:57;;;;;;;;;;;23.80;51.70;;;;;;5091810;27;43157;-81
2023/05/23 13:35:22;;;;;;;;;;;23.90;51.40;;;;;;5095262;27;43715;-79
2023/05/23 13:37:48;;;;;;;;;;;23.80;51.30;;;;;;5095982;27;42932;-77
2023/05/23 13:40:17;;;;;;;;;;;24.00;52.00;;;;;;5098485;27;43031;-93
2023/05/23 13:42:43;;;;;;;;;;;23.90;51.30;;;;;;5094673;27;42997;-83
2023/05/23 13:45:09;;;;;;;;;;;23.90;51.60;;;;;;5096601;27;45507;-82
2023/05/23 13:47:36;;;;;;;;;;;23.90;51.40;;;;;;5097840;27;42978;-82
2023/05/23 13:50:02;;;;;;;;;;;23.90;51.20;;;;;;5100160;27;43988;-82
2023/05/23 13:52:28;;;;;;;;;;;23.90;51.70;;;;;;5095118;27;43168;-83
2023/05/23 13:54:53;;;;;;;;;;;23.90;51.40;;;;;;5094530;27;43035;-90
2023/05/23 14:00:22;;;;;;;;;;;24.10;51.60;;;;;;5090195;27;43297;-84
2023/05/23 14:02:47;;;;;;;;;;;24.00;51.80;;;;;;5107500;27;43014;-86
2023/05/23 14:05:14;;;;;;;;;;;24.00;51.80;;;;;;5097070;27;43472;-86
2023/05/23 14:07:40;;;;;;;;;;;24.00;51.30;;;;;;5101015;27;43707;-82
2023/05/23 14:10:05;;;;;;;;;;;24.00;52.00;;;;;;5072381;27;45663;-76
2023/05/23 14:12:31;;;;;;;;;;;23.90;51.70;;;;;;5091226;27;43091;-87
2023/05/23 14:14:56;;;;;;;;;;;24.00;51.80;;;;;;5089499;27;43181;-85
2023/05/23 14:17:22;;;;;;;;;;;24.00;51.90;;;;;;5093883;27;43117;-87